Terminal Aerodrome Forecast
Issued by NWS

Home | Current Version | Previous Version | Text Only | Print | Product List | Glossary On
Versions: 1 2 3 4 5 6 7 8 9 10 11 12 13 14 15 16 17 18 19 20 21 22
000
FTUS43 KDTX 151539 AAA
TAFDET
TAF AMD
KDET 151539Z 1516/1612 21008KT 5SM -SHSN OVC035
      TEMPO 1516/1517 1SM -SN OVC025
     FM151700 23012G25KT 4SM -SHSN OVC020
      TEMPO 1518/1521 2SM -SHSN OVC015
     FM152100 27012KT 5SM -SHSN OVC015
     FM152300 26014KT P6SM -SHSN OVC025
     FM160300 26008KT P6SM OVC035=

USA.gov is the U.S. government's official web portal to all federal, state and local government web resources and services.